sensor_id;sensor_type;location;lat;lon;timestamp;P1;durP1;ratioP1;P2;durP2;ratioP2
2019;SDS011;1014;51.960;8.542;2023-05-10T00:00:46;34.90;;;32.70;;
2019;SDS011;1014;51.960;8.542;2023-05-10T00:03:13;34.17;;;31.73;;
2019;SDS011;1014;51.960;8.542;2023-05-10T00:05:40;34.57;;;32.03;;
2019;SDS011;1014;51.960;8.542;2023-05-10T00:08:09;33.27;;;31.10;;
2019;SDS011;1014;51.960;8.542;2023-05-10T00:10:36;33.90;;;31.70;;
2019;SDS011;1014;51.960;8.542;2023-05-10T00:13:03;37.10;;;34.50;;
2019;SDS011;1014;51.960;8.542;2023-05-10T00:15:30;36.70;;;34.10;;
2019;SDS011;1014;51.960;8.542;2023-05-10T00:17:57;36.30;;;33.80;;
2019;SDS011;1014;51.960;8.542;2023-05-10T00:20:24;35.27;;;32.93;;
2019;SDS011;1014;51.960;8.542;2023-05-10T00:22:51;36.37;;;33.97;;
2019;SDS011;1014;51.960;8.542;2023-05-10T00:25:20;38.30;;;35.70;;
2019;SDS011;1014;51.960;8.542;2023-05-10T00:27:47;39.47;;;36.77;;
2019;SDS011;1014;51.960;8.542;2023-05-10T00:30:14;38.60;;;35.83;;
2019;SDS011;1014;51.960;8.542;2023-05-10T00:32:41;40.90;;;37.97;;
2019;SDS011;1014;51.960;8.542;2023-05-10T00:35:09;39.80;;;37.10;;
2019;SDS011;1014;51.960;8.542;2023-05-10T00:37:36;40.93;;;38.03;;
2019;SDS011;1014;51.960;8.542;2023-05-10T00:40:03;41.10;;;38.47;;
2019;SDS011;1014;51.960;8.542;2023-05-10T00:42:32;43.27;;;40.47;;
2019;SDS011;1014;51.960;8.542;2023-05-10T00:44:59;40.00;;;37.37;;
2019;SDS011;1014;51.960;8.542;2023-05-10T00:47:26;40.67;;;37.27;;
2019;SDS011;1014;51.960;8.542;2023-05-10T00:49:53;38.43;;;35.93;;
2019;SDS011;1014;51.960;8.542;2023-05-10T00:52:21;39.77;;;37.07;;
2019;SDS011;1014;51.960;8.542;2023-05-10T00:54:48;41.00;;;38.20;;
2019;SDS011;1014;51.960;8.542;2023-05-10T00:57:16;41.60;;;38.60;;
2019;SDS011;1014;51.960;8.542;2023-05-10T00:59:44;42.30;;;38.80;;
2019;SDS011;1014;51.960;8.542;2023-05-10T01:02:11;44.47;;;40.67;;
2019;SDS011;1014;51.960;8.542;2023-05-10T01:04:39;42.40;;;39.20;;
2019;SDS011;1014;51.960;8.542;2023-05-10T01:07:06;42.30;;;39.07;;
2019;SDS011;1014;51.960;8.542;2023-05-10T01:09:33;42.10;;;39.03;;
2019;SDS011;1014;51.960;8.542;2023-05-10T01:12:00;42.17;;;39.20;;
2019;SDS011;1014;51.960;8.542;2023-05-10T01:14:28;41.37;;;38.37;;
2019;SDS011;1014;51.960;8.542;2023-05-10T01:16:57;44.73;;;41.37;;
2019;SDS011;1014;51.960;8.542;2023-05-10T01:19:26;43.83;;;40.73;;
2019;SDS011;1014;51.960;8.542;2023-05-10T01:21:56;45.93;;;42.43;;
2019;SDS011;1014;51.960;8.542;2023-05-10T01:27:14;47.30;;;43.70;;
2019;SDS011;1014;51.960;8.542;2023-05-10T01:29:55;48.00;;;44.50;;
2019;SDS011;1014;51.960;8.542;2023-05-10T01:32:32;49.03;;;45.40;;
2019;SDS011;1014;51.960;8.542;2023-05-10T01:35:03;51.20;;;47.43;;
2019;SDS011;1014;51.960;8.542;2023-05-10T01:37:33;50.03;;;46.27;;
2019;SDS011;1014;51.960;8.542;2023-05-10T01:40:05;52.70;;;49.20;;
2019;SDS011;1014;51.960;8.542;2023-05-10T01:42:36;53.80;;;49.83;;
2019;SDS011;1014;51.960;8.542;2023-05-10T01:45:07;52.50;;;48.70;;
2019;SDS011;1014;51.960;8.542;2023-05-10T01:47:40;52.83;;;48.97;;
2019;SDS011;1014;51.960;8.542;2023-05-10T01:50:10;56.63;;;52.63;;
2019;SDS011;1014;51.960;8.542;2023-05-10T01:52:38;63.20;;;58.33;;
2019;SDS011;1014;51.960;8.542;2023-05-10T01:55:09;60.03;;;56.03;;
2019;SDS011;1014;51.960;8.542;2023-05-10T01:57:38;60.90;;;56.50;;
2019;SDS011;1014;51.960;8.542;2023-05-10T02:00:06;84.80;;;79.77;;
2019;SDS011;1014;51.960;8.542;2023-05-10T02:02:36;76.70;;;72.50;;
2019;SDS011;1014;51.960;8.542;2023-05-10T02:05:06;69.30;;;65.50;;
2019;SDS011;1014;51.960;8.542;2023-05-10T02:07:34;70.20;;;66.33;;
2019;SDS011;1014;51.960;8.542;2023-05-10T02:10:02;66.90;;;63.10;;
2019;SDS011;1014;51.960;8.542;2023-05-10T02:12:29;61.70;;;58.30;;
2019;SDS011;1014;51.960;8.542;2023-05-10T02:14:56;66.70;;;62.90;;
2019;SDS011;1014;51.960;8.542;2023-05-10T02:17:24;68.10;;;64.37;;
2019;SDS011;1014;51.960;8.542;2023-05-10T02:19:51;71.27;;;67.37;;
2019;SDS011;1014;51.960;8.542;2023-05-10T02:22:21;68.23;;;64.23;;
2019;SDS011;1014;51.960;8.542;2023-05-10T02:24:49;70.93;;;66.87;;
2019;SDS011;1014;51.960;8.542;2023-05-10T02:27:17;69.37;;;65.33;;
2019;SDS011;1014;51.960;8.542;2023-05-10T02:29:44;74.67;;;70.10;;
2019;SDS011;1014;51.960;8.542;2023-05-10T02:32:12;74.13;;;70.00;;
2019;SDS011;1014;51.960;8.542;2023-05-10T02:34:39;56.13;;;52.60;;
2019;SDS011;1014;51.960;8.542;2023-05-10T02:37:07;54.43;;;51.00;;
2019;SDS011;1014;51.960;8.542;2023-05-10T02:39:35;55.30;;;51.90;;
2019;SDS011;1014;51.960;8.542;2023-05-10T02:42:05;54.57;;;51.43;;
2019;SDS011;1014;51.960;8.542;2023-05-10T02:44:33;53.80;;;50.57;;
2019;SDS011;1014;51.960;8.542;2023-05-10T02:47:00;54.50;;;51.17;;
2019;SDS011;1014;51.960;8.542;2023-05-10T02:49:28;54.43;;;51.17;;
2019;SDS011;1014;51.960;8.542;2023-05-10T02:51:56;55.20;;;52.03;;
2019;SDS011;1014;51.960;8.542;2023-05-10T02:54:27;50.17;;;47.07;;
2019;SDS011;1014;51.960;8.542;2023-05-10T02:56:58;53.13;;;49.87;;
2019;SDS011;1014;51.960;8.542;2023-05-10T02:59:26;50.43;;;47.30;;
2019;SDS011;1014;51.960;8.542;2023-05-10T03:01:53;49.80;;;46.77;;
2019;SDS011;1014;51.960;8.542;2023-05-10T03:04:20;44.20;;;41.60;;
2019;SDS011;1014;51.960;8.542;2023-05-10T03:06:47;48.60;;;45.53;;
2019;SDS011;1014;51.960;8.542;2023-05-10T03:09:14;49.10;;;46.07;;
2019;SDS011;1014;51.960;8.542;2023-05-10T03:11:47;48.53;;;45.20;;
2019;SDS011;1014;51.960;8.542;2023-05-10T03:14:21;48.67;;;45.37;;
2019;SDS011;1014;51.960;8.542;2023-05-10T03:16:52;48.33;;;44.73;;
2019;SDS011;1014;51.960;8.542;2023-05-10T03:19:22;49.63;;;46.00;;
2019;SDS011;1014;51.960;8.542;2023-05-10T03:21:51;49.00;;;45.73;;
2019;SDS011;1014;51.960;8.542;2023-05-10T03:24:20;50.77;;;47.23;;
2019;SDS011;1014;51.960;8.542;2023-05-10T03:26:47;50.17;;;46.43;;
2019;SDS011;1014;51.960;8.542;2023-05-10T03:29:15;49.93;;;46.67;;
2019;SDS011;1014;51.960;8.542;2023-05-10T03:31:44;47.77;;;44.30;;
2019;SDS011;1014;51.960;8.542;2023-05-10T03:34:11;48.10;;;45.00;;
2019;SDS011;1014;51.960;8.542;2023-05-10T03:36:38;46.00;;;43.10;;
2019;SDS011;1014;51.960;8.542;2023-05-10T03:39:05;47.60;;;44.40;;
2019;SDS011;1014;51.960;8.542;2023-05-10T03:41:32;47.23;;;44.23;;
2019;SDS011;1014;51.960;8.542;2023-05-10T03:43:59;44.23;;;41.53;;
2019;SDS011;1014;51.960;8.542;2023-05-10T03:46:26;47.23;;;43.93;;
2019;SDS011;1014;51.960;8.542;2023-05-10T03:48:54;43.97;;;40.97;;
2019;SDS011;1014;51.960;8.542;2023-05-10T03:51:22;44.70;;;41.80;;
2019;SDS011;1014;51.960;8.542;2023-05-10T03:53:52;44.90;;;42.03;;
2019;SDS011;1014;51.960;8.542;2023-05-10T03:56:19;46.03;;;42.97;;
2019;SDS011;1014;51.960;8.542;2023-05-10T03:58:46;41.27;;;38.57;;
2019;SDS011;1014;51.960;8.542;2023-05-10T04:01:13;39.50;;;37.10;;
2019;SDS011;1014;51.960;8.542;2023-05-10T04:03:40;40.00;;;37.70;;
2019;SDS011;1014;51.960;8.542;2023-05-10T04:06:09;38.53;;;36.40;;
2019;SDS011;1014;51.960;8.542;2023-05-10T04:08:36;37.93;;;36.03;;
2019;SDS011;1014;51.960;8.542;2023-05-10T04:11:07;34.13;;;32.47;;
2019;SDS011;1014;51.960;8.542;2023-05-10T04:13:34;34.97;;;33.27;;
2019;SDS011;1014;51.960;8.542;2023-05-10T04:16:01;32.47;;;30.90;;
2019;SDS011;1014;51.960;8.542;2023-05-10T04:18:28;32.80;;;31.20;;
2019;SDS011;1014;51.960;8.542;2023-05-10T04:20:55;30.30;;;28.90;;
2019;SDS011;1014;51.960;8.542;2023-05-10T04:23:23;31.90;;;30.40;;
2019;SDS011;1014;51.960;8.542;2023-05-10T04:25:50;31.83;;;30.40;;
2019;SDS011;1014;51.960;8.542;2023-05-10T04:28:17;36.20;;;34.50;;
2019;SDS011;1014;51.960;8.542;2023-05-10T04:30:44;36.40;;;34.80;;
2019;SDS011;1014;51.960;8.542;2023-05-10T04:33:12;35.33;;;33.47;;
2019;SDS011;1014;51.960;8.542;2023-05-10T04:35:39;34.27;;;32.67;;
2019;SDS011;1014;51.960;8.542;2023-05-10T04:38:06;33.03;;;31.53;;
2019;SDS011;1014;51.960;8.542;2023-05-10T04:40:34;31.47;;;30.07;;
2019;SDS011;1014;51.960;8.542;2023-05-10T04:43:01;33.97;;;32.47;;
2019;SDS011;1014;51.960;8.542;2023-05-10T04:45:28;36.10;;;34.40;;
2019;SDS011;1014;51.960;8.542;2023-05-10T04:47:56;36.40;;;34.60;;
2019;SDS011;1014;51.960;8.542;2023-05-10T04:50:23;35.47;;;33.77;;
2019;SDS011;1014;51.960;8.542;2023-05-10T04:52:50;37.30;;;35.40;;
2019;SDS011;1014;51.960;8.542;2023-05-10T04:55:17;38.03;;;36.23;;
2019;SDS011;1014;51.960;8.542;2023-05-10T04:57:45;37.07;;;35.37;;
2019;SDS011;1014;51.960;8.542;2023-05-10T05:00:12;38.40;;;36.60;;
2019;SDS011;1014;51.960;8.542;2023-05-10T05:02:41;41.63;;;39.63;;
2019;SDS011;1014;51.960;8.542;2023-05-10T05:05:09;40.03;;;38.03;;
2019;SDS011;1014;51.960;8.542;2023-05-10T05:07:36;38.90;;;37.07;;
2019;SDS011;1014;51.960;8.542;2023-05-10T05:10:04;40.47;;;38.37;;
2019;SDS011;1014;51.960;8.542;2023-05-10T05:12:31;39.30;;;37.33;;
2019;SDS011;1014;51.960;8.542;2023-05-10T05:14:59;39.47;;;37.57;;
2019;SDS011;1014;51.960;8.542;2023-05-10T05:17:27;41.73;;;39.40;;
2019;SDS011;1014;51.960;8.542;2023-05-10T05:19:53;39.00;;;37.10;;
2019;SDS011;1014;51.960;8.542;2023-05-10T05:22:20;38.93;;;36.93;;
2019;SDS011;1014;51.960;8.542;2023-05-10T05:24:52;37.30;;;35.50;;
2019;SDS011;1014;51.960;8.542;2023-05-10T05:27:19;34.03;;;32.43;;
2019;SDS011;1014;51.960;8.542;2023-05-10T05:29:49;40.53;;;38.43;;
2019;SDS011;1014;51.960;8.542;2023-05-10T05:32:17;38.10;;;36.20;;
2019;SDS011;1014;51.960;8.542;2023-05-10T05:34:44;37.53;;;35.53;;
2019;SDS011;1014;51.960;8.542;2023-05-10T05:37:12;37.83;;;35.93;;
2019;SDS011;1014;51.960;8.542;2023-05-10T05:39:39;35.63;;;33.73;;
2019;SDS011;1014;51.960;8.542;2023-05-10T05:42:07;34.03;;;32.33;;
2019;SDS011;1014;51.960;8.542;2023-05-10T05:44:34;34.73;;;33.13;;
2019;SDS011;1014;51.960;8.542;2023-05-10T05:47:01;34.83;;;33.20;;
2019;SDS011;1014;51.960;8.542;2023-05-10T05:49:29;35.20;;;33.50;;
2019;SDS011;1014;51.960;8.542;2023-05-10T05:51:58;34.57;;;32.87;;
2019;SDS011;1014;51.960;8.542;2023-05-10T05:54:25;35.03;;;33.23;;
2019;SDS011;1014;51.960;8.542;2023-05-10T05:56:53;34.50;;;32.90;;
2019;SDS011;1014;51.960;8.542;2023-05-10T05:59:20;34.70;;;33.10;;
2019;SDS011;1014;51.960;8.542;2023-05-10T06:01:47;34.83;;;33.10;;
2019;SDS011;1014;51.960;8.542;2023-05-10T06:04:15;36.10;;;34.30;;
2019;SDS011;1014;51.960;8.542;2023-05-10T06:06:43;35.50;;;33.80;;
2019;SDS011;1014;51.960;8.542;2023-05-10T06:09:10;34.23;;;32.53;;
2019;SDS011;1014;51.960;8.542;2023-05-10T06:11:37;33.33;;;31.83;;
2019;SDS011;1014;51.960;8.542;2023-05-10T06:14:04;34.20;;;32.43;;
2019;SDS011;1014;51.960;8.542;2023-05-10T06:16:32;35.23;;;33.40;;
2019;SDS011;1014;51.960;8.542;2023-05-10T06:18:59;35.27;;;33.23;;
2019;SDS011;1014;51.960;8.542;2023-05-10T06:21:27;33.23;;;31.63;;
2019;SDS011;1014;51.960;8.542;2023-05-10T06:23:55;32.83;;;31.23;;
2019;SDS011;1014;51.960;8.542;2023-05-10T06:26:22;35.43;;;33.63;;
2019;SDS011;1014;51.960;8.542;2023-05-10T06:28:49;33.33;;;31.73;;
2019;SDS011;1014;51.960;8.542;2023-05-10T06:31:16;35.80;;;34.13;;
2019;SDS011;1014;51.960;8.542;2023-05-10T06:33:43;36.07;;;34.27;;
2019;SDS011;1014;51.960;8.542;2023-05-10T06:36:10;36.57;;;34.77;;
2019;SDS011;1014;51.960;8.542;2023-05-10T06:38:38;38.00;;;36.00;;
2019;SDS011;1014;51.960;8.542;2023-05-10T06:41:06;34.53;;;32.83;;
2019;SDS011;1014;51.960;8.542;2023-05-10T06:43:33;34.70;;;32.80;;
2019;SDS011;1014;51.960;8.542;2023-05-10T06:46:01;33.87;;;32.17;;
2019;SDS011;1014;51.960;8.542;2023-05-10T06:48:28;33.53;;;31.73;;
2019;SDS011;1014;51.960;8.542;2023-05-10T06:50:55;34.50;;;32.70;;
2019;SDS011;1014;51.960;8.542;2023-05-10T06:53:22;35.30;;;33.43;;
2019;SDS011;1014;51.960;8.542;2023-05-10T06:55:49;35.30;;;33.50;;
2019;SDS011;1014;51.960;8.542;2023-05-10T06:58:18;34.10;;;32.40;;
2019;SDS011;1014;51.960;8.542;2023-05-10T07:00:45;32.87;;;31.17;;
2019;SDS011;1014;51.960;8.542;2023-05-10T07:03:12;33.87;;;32.00;;
2019;SDS011;1014;51.960;8.542;2023-05-10T07:05:39;35.50;;;33.60;;
2019;SDS011;1014;51.960;8.542;2023-05-10T07:08:06;33.50;;;31.80;;
2019;SDS011;1014;51.960;8.542;2023-05-10T07:10:33;33.00;;;31.40;;
2019;SDS011;1014;51.960;8.542;2023-05-10T07:13:00;34.07;;;32.27;;
2019;SDS011;1014;51.960;8.542;2023-05-10T07:15:29;32.47;;;30.83;;
2019;SDS011;1014;51.960;8.542;2023-05-10T07:17:55;34.60;;;32.67;;
2019;SDS011;1014;51.960;8.542;2023-05-10T07:20:22;34.87;;;32.97;;
2019;SDS011;1014;51.960;8.542;2023-05-10T07:22:49;35.83;;;33.80;;
2019;SDS011;1014;51.960;8.542;2023-05-10T07:25:16;33.30;;;31.27;;
2019;SDS011;1014;51.960;8.542;2023-05-10T07:27:43;34.17;;;32.07;;
2019;SDS011;1014;51.960;8.542;2023-05-10T07:30:13;30.70;;;28.90;;
2019;SDS011;1014;51.960;8.542;2023-05-10T07:32:41;31.33;;;29.53;;
2019;SDS011;1014;51.960;8.542;2023-05-10T07:35:09;34.17;;;32.20;;
2019;SDS011;1014;51.960;8.542;2023-05-10T07:37:35;39.30;;;36.30;;
2019;SDS011;1014;51.960;8.542;2023-05-10T07:40:03;36.13;;;33.93;;
2019;SDS011;1014;51.960;8.542;2023-05-10T07:42:30;34.23;;;32.23;;
2019;SDS011;1014;51.960;8.542;2023-05-10T07:44:57;35.03;;;32.83;;
2019;SDS011;1014;51.960;8.542;2023-05-10T07:47:24;35.30;;;32.90;;
2019;SDS011;1014;51.960;8.542;2023-05-10T07:49:52;32.63;;;30.73;;
2019;SDS011;1014;51.960;8.542;2023-05-10T07:52:20;33.67;;;31.60;;
2019;SDS011;1014;51.960;8.542;2023-05-10T07:54:47;33.63;;;31.53;;
2019;SDS011;1014;51.960;8.542;2023-05-10T07:57:14;37.50;;;34.90;;
2019;SDS011;1014;51.960;8.542;2023-05-10T07:59:42;31.93;;;29.73;;
2019;SDS011;1014;51.960;8.542;2023-05-10T08:02:10;33.53;;;31.20;;
2019;SDS011;1014;51.960;8.542;2023-05-10T08:04:37;36.43;;;33.80;;
2019;SDS011;1014;51.960;8.542;2023-05-10T08:07:05;35.53;;;32.80;;
2019;SDS011;1014;51.960;8.542;2023-05-10T08:09:32;35.57;;;32.90;;
2019;SDS011;1014;51.960;8.542;2023-05-10T08:11:59;34.47;;;31.77;;
2019;SDS011;1014;51.960;8.542;2023-05-10T08:14:27;35.60;;;32.63;;
2019;SDS011;1014;51.960;8.542;2023-05-10T08:16:55;35.83;;;32.93;;
2019;SDS011;1014;51.960;8.542;2023-05-10T08:19:22;34.90;;;32.10;;
2019;SDS011;1014;51.960;8.542;2023-05-10T08:21:49;35.50;;;32.73;;
2019;SDS011;1014;51.960;8.542;2023-05-10T08:24:17;37.33;;;34.03;;
2019;SDS011;1014;51.960;8.542;2023-05-10T08:26:44;32.67;;;29.77;;
2019;SDS011;1014;51.960;8.542;2023-05-10T08:29:12;35.47;;;32.13;;
2019;SDS011;1014;51.960;8.542;2023-05-10T08:31:39;33.70;;;30.63;;
2019;SDS011;1014;51.960;8.542;2023-05-10T08:34:06;36.40;;;33.07;;
2019;SDS011;1014;51.960;8.542;2023-05-10T08:36:33;34.30;;;31.40;;
2019;SDS011;1014;51.960;8.542;2023-05-10T08:39:01;33.37;;;30.60;;
2019;SDS011;1014;51.960;8.542;2023-05-10T08:41:29;33.47;;;30.70;;
2019;SDS011;1014;51.960;8.542;2023-05-10T08:43:56;32.17;;;29.23;;
2019;SDS011;1014;51.960;8.542;2023-05-10T08:46:23;34.77;;;31.50;;
2019;SDS011;1014;51.960;8.542;2023-05-10T08:48:50;30.20;;;27.90;;
2019;SDS011;1014;51.960;8.542;2023-05-10T08:51:18;33.53;;;30.90;;
2019;SDS011;1014;51.960;8.542;2023-05-10T08:53:46;35.03;;;32.20;;
2019;SDS011;1014;51.960;8.542;2023-05-10T08:56:13;34.20;;;31.33;;
2019;SDS011;1014;51.960;8.542;2023-05-10T08:58:44;35.73;;;32.63;;
2019;SDS011;1014;51.960;8.542;2023-05-10T09:01:11;32.77;;;29.97;;
2019;SDS011;1014;51.960;8.542;2023-05-10T09:03:39;35.30;;;32.40;;
2019;SDS011;1014;51.960;8.542;2023-05-10T09:06:06;34.73;;;31.83;;
2019;SDS011;1014;51.960;8.542;2023-05-10T09:08:34;35.40;;;32.50;;
2019;SDS011;1014;51.960;8.542;2023-05-10T09:11:01;34.10;;;31.50;;
2019;SDS011;1014;51.960;8.542;2023-05-10T09:13:28;35.83;;;32.60;;
2019;SDS011;1014;51.960;8.542;2023-05-10T09:15:56;35.67;;;32.77;;
2019;SDS011;1014;51.960;8.542;2023-05-10T09:18:23;35.50;;;32.73;;
2019;SDS011;1014;51.960;8.542;2023-05-10T09:20:50;32.67;;;29.97;;
2019;SDS011;1014;51.960;8.542;2023-05-10T09:23:17;33.70;;;31.10;;
2019;SDS011;1014;51.960;8.542;2023-05-10T09:25:44;35.33;;;32.30;;
2019;SDS011;1014;51.960;8.542;2023-05-10T09:28:12;31.77;;;29.27;;
2019;SDS011;1014;51.960;8.542;2023-05-10T09:30:39;35.00;;;31.90;;
2019;SDS011;1014;51.960;8.542;2023-05-10T09:33:09;35.27;;;32.47;;
2019;SDS011;1014;51.960;8.542;2023-05-10T09:35:36;36.67;;;33.17;;
2019;SDS011;1014;51.960;8.542;2023-05-10T09:38:05;34.97;;;31.93;;
2019;SDS011;1014;51.960;8.542;2023-05-10T09:40:32;33.83;;;30.80;;
2019;SDS011;1014;51.960;8.542;2023-05-10T09:42:59;35.70;;;32.20;;
2019;SDS011;1014;51.960;8.542;2023-05-10T09:45:27;35.77;;;32.57;;
2019;SDS011;1014;51.960;8.542;2023-05-10T09:47:54;35.10;;;32.00;;
2019;SDS011;1014;51.960;8.542;2023-05-10T09:50:23;33.80;;;30.90;;
2019;SDS011;1014;51.960;8.542;2023-05-10T09:52:50;34.57;;;31.20;;
2019;SDS011;1014;51.960;8.542;2023-05-10T09:55:19;33.97;;;31.00;;
2019;SDS011;1014;51.960;8.542;2023-05-10T09:57:47;32.80;;;30.10;;
2019;SDS011;1014;51.960;8.542;2023-05-10T10:00:18;34.70;;;31.63;;
2019;SDS011;1014;51.960;8.542;2023-05-10T10:02:46;31.43;;;28.83;;
2019;SDS011;1014;51.960;8.542;2023-05-10T10:05:13;32.43;;;29.73;;
2019;SDS011;1014;51.960;8.542;2023-05-10T10:07:41;32.63;;;29.73;;
2019;SDS011;1014;51.960;8.542;2023-05-10T10:10:08;31.43;;;28.53;;
2019;SDS011;1014;51.960;8.542;2023-05-10T10:12:37;31.40;;;28.80;;
2019;SDS011;1014;51.960;8.542;2023-05-10T10:15:05;33.20;;;30.43;;
2019;SDS011;1014;51.960;8.542;2023-05-10T10:17:33;32.03;;;29.43;;
2019;SDS011;1014;51.960;8.542;2023-05-10T10:20:02;28.83;;;26.63;;
2019;SDS011;1014;51.960;8.542;2023-05-10T10:22:29;28.90;;;26.33;;
2019;SDS011;1014;51.960;8.542;2023-05-10T10:24:57;27.47;;;25.33;;
2019;SDS011;1014;51.960;8.542;2023-05-10T10:27:26;27.70;;;25.60;;
2019;SDS011;1014;51.960;8.542;2023-05-10T10:29:59;28.30;;;26.30;;
2019;SDS011;1014;51.960;8.542;2023-05-10T10:32:30;28.17;;;25.97;;
2019;SDS011;1014;51.960;8.542;2023-05-10T10:35:00;29.33;;;26.93;;
2019;SDS011;1014;51.960;8.542;2023-05-10T10:37:40;28.00;;;26.00;;
2019;SDS011;1014;51.960;8.542;2023-05-10T10:42:52;28.07;;;25.77;;
2019;SDS011;1014;51.960;8.542;2023-05-10T10:45:19;27.20;;;25.20;;
2019;SDS011;1014;51.960;8.542;2023-05-10T10:47:47;26.40;;;24.53;;
2019;SDS011;1014;51.960;8.542;2023-05-10T10:50:14;28.60;;;26.17;;
2019;SDS011;1014;51.960;8.542;2023-05-10T10:52:42;25.43;;;23.63;;
2019;SDS011;1014;51.960;8.542;2023-05-10T10:55:09;25.77;;;23.87;;
2019;SDS011;1014;51.960;8.542;2023-05-10T10:57:44;25.97;;;24.10;;
2019;SDS011;1014;51.960;8.542;2023-05-10T11:00:26;25.63;;;23.63;;
2019;SDS011;1014;51.960;8.542;2023-05-10T11:02:58;25.97;;;24.20;;
2019;SDS011;1014;51.960;8.542;2023-05-10T11:05:33;25.67;;;23.87;;
2019;SDS011;1014;51.960;8.542;2023-05-10T11:08:06;25.50;;;23.73;;
2019;SDS011;1014;51.960;8.542;2023-05-10T11:10:33;25.10;;;23.00;;
2019;SDS011;1014;51.960;8.542;2023-05-10T11:13:01;25.00;;;23.47;;
2019;SDS011;1014;51.960;8.542;2023-05-10T11:15:31;26.07;;;24.07;;
2019;SDS011;1014;51.960;8.542;2023-05-10T11:17:58;23.83;;;22.30;;
2019;SDS011;1014;51.960;8.542;2023-05-10T11:20:27;23.30;;;21.80;;
2019;SDS011;1014;51.960;8.542;2023-05-10T11:22:59;24.10;;;22.30;;
2019;SDS011;1014;51.960;8.542;2023-05-10T11:25:40;25.03;;;23.33;;
2019;SDS011;1014;51.960;8.542;2023-05-10T11:28:07;23.37;;;21.93;;
2019;SDS011;1014;51.960;8.542;2023-05-10T11:30:36;25.80;;;24.10;;
2019;SDS011;1014;51.960;8.542;2023-05-10T11:33:03;24.77;;;22.80;;
2019;SDS011;1014;51.960;8.542;2023-05-10T11:35:30;25.50;;;23.70;;
2019;SDS011;1014;51.960;8.542;2023-05-10T11:37:57;24.37;;;22.67;;
2019;SDS011;1014;51.960;8.542;2023-05-10T11:40:24;24.87;;;23.17;;
2019;SDS011;1014;51.960;8.542;2023-05-10T11:42:51;23.87;;;22.17;;
2019;SDS011;1014;51.960;8.542;2023-05-10T11:45:18;24.67;;;23.17;;
2019;SDS011;1014;51.960;8.542;2023-05-10T11:47:49;24.80;;;23.20;;
2019;SDS011;1014;51.960;8.542;2023-05-10T11:50:16;25.80;;;23.80;;
2019;SDS011;1014;51.960;8.542;2023-05-10T11:52:43;25.77;;;23.87;;
2019;SDS011;1014;51.960;8.542;2023-05-10T11:55:10;25.73;;;23.60;;
2019;SDS011;1014;51.960;8.542;2023-05-10T11:57:38;26.30;;;24.50;;
2019;SDS011;1014;51.960;8.542;2023-05-10T12:00:07;26.23;;;24.20;;
2019;SDS011;1014;51.960;8.542;2023-05-10T12:02:34;25.90;;;24.00;;
2019;SDS011;1014;51.960;8.542;2023-05-10T12:05:03;27.37;;;25.17;;
2019;SDS011;1014;51.960;8.542;2023-05-10T12:07:31;60.10;;;54.97;;
2019;SDS011;1014;51.960;8.542;2023-05-10T12:10:07;59.53;;;54.83;;
2019;SDS011;1014;51.960;8.542;2023-05-10T12:12:36;36.57;;;33.27;;
2019;SDS011;1014;51.960;8.542;2023-05-10T12:15:03;31.90;;;29.13;;
2019;SDS011;1014;51.960;8.542;2023-05-10T12:17:31;34.63;;;31.33;;
2019;SDS011;1014;51.960;8.542;2023-05-10T12:19:58;33.67;;;30.10;;
2019;SDS011;1014;51.960;8.542;2023-05-10T12:22:27;35.83;;;32.10;;
2019;SDS011;1014;51.960;8.542;2023-05-10T12:24:54;30.67;;;27.67;;
2019;SDS011;1014;51.960;8.542;2023-05-10T12:27:21;32.87;;;29.77;;
2019;SDS011;1014;51.960;8.542;2023-05-10T12:29:48;32.77;;;29.67;;
2019;SDS011;1014;51.960;8.542;2023-05-10T12:32:15;30.53;;;27.80;;
2019;SDS011;1014;51.960;8.542;2023-05-10T12:34:41;33.73;;;30.17;;
2019;SDS011;1014;51.960;8.542;2023-05-10T12:37:11;33.60;;;30.30;;
2019;SDS011;1014;51.960;8.542;2023-05-10T12:39:40;31.43;;;28.70;;
2019;SDS011;1014;51.960;8.542;2023-05-10T12:42:08;34.20;;;31.30;;
2019;SDS011;1014;51.960;8.542;2023-05-10T12:44:35;32.60;;;29.50;;
2019;SDS011;1014;51.960;8.542;2023-05-10T12:47:02;32.13;;;29.17;;
2019;SDS011;1014;51.960;8.542;2023-05-10T12:49:29;35.67;;;31.30;;
2019;SDS011;1014;51.960;8.542;2023-05-10T12:51:56;31.57;;;28.77;;
2019;SDS011;1014;51.960;8.542;2023-05-10T12:54:23;33.00;;;29.70;;
2019;SDS011;1014;51.960;8.542;2023-05-10T12:56:52;33.60;;;30.30;;
2019;SDS011;1014;51.960;8.542;2023-05-10T12:59:19;33.63;;;30.37;;
2019;SDS011;1014;51.960;8.542;2023-05-10T13:01:46;34.70;;;31.33;;
2019;SDS011;1014;51.960;8.542;2023-05-10T13:04:13;34.50;;;31.20;;
2019;SDS011;1014;51.960;8.542;2023-05-10T13:06:40;32.60;;;29.50;;
2019;SDS011;1014;51.960;8.542;2023-05-10T13:09:07;33.27;;;30.23;;
2019;SDS011;1014;51.960;8.542;2023-05-10T13:11:34;32.37;;;29.37;;
2019;SDS011;1014;51.960;8.542;2023-05-10T13:14:02;30.50;;;27.63;;
2019;SDS011;1014;51.960;8.542;2023-05-10T13:16:29;29.03;;;26.53;;
2019;SDS011;1014;51.960;8.542;2023-05-10T13:18:57;28.80;;;26.30;;
2019;SDS011;1014;51.960;8.542;2023-05-10T13:21:24;31.57;;;28.67;;
2019;SDS011;1014;51.960;8.542;2023-05-10T13:23:51;33.47;;;30.27;;
2019;SDS011;1014;51.960;8.542;2023-05-10T13:26:18;32.60;;;29.50;;
2019;SDS011;1014;51.960;8.542;2023-05-10T13:28:46;30.73;;;27.87;;
2019;SDS011;1014;51.960;8.542;2023-05-10T13:31:15;30.57;;;27.33;;
2019;SDS011;1014;51.960;8.542;2023-05-10T13:33:42;29.97;;;27.07;;
2019;SDS011;1014;51.960;8.542;2023-05-10T13:36:09;30.33;;;27.33;;
2019;SDS011;1014;51.960;8.542;2023-05-10T13:38:36;25.77;;;23.67;;
2019;SDS011;1014;51.960;8.542;2023-05-10T13:41:03;20.70;;;19.00;;
2019;SDS011;1014;51.960;8.542;2023-05-10T13:43:30;21.90;;;20.27;;
2019;SDS011;1014;51.960;8.542;2023-05-10T13:45:57;22.70;;;20.80;;
2019;SDS011;1014;51.960;8.542;2023-05-10T13:48:26;22.50;;;20.70;;
2019;SDS011;1014;51.960;8.542;2023-05-10T13:50:53;23.70;;;21.90;;
2019;SDS011;1014;51.960;8.542;2023-05-10T13:53:20;25.77;;;23.63;;
2019;SDS011;1014;51.960;8.542;2023-05-10T13:55:47;25.20;;;23.20;;
2019;SDS011;1014;51.960;8.542;2023-05-10T13:58:14;27.13;;;24.67;;
2019;SDS011;1014;51.960;8.542;2023-05-10T14:00:41;25.07;;;23.17;;
2019;SDS011;1014;51.960;8.542;2023-05-10T14:03:08;27.23;;;24.90;;
2019;SDS011;1014;51.960;8.542;2023-05-10T14:05:37;29.23;;;26.60;;
2019;SDS011;1014;51.960;8.542;2023-05-10T14:08:04;29.20;;;26.70;;
2019;SDS011;1014;51.960;8.542;2023-05-10T14:10:32;29.57;;;26.63;;
2019;SDS011;1014;51.960;8.542;2023-05-10T14:12:59;27.23;;;25.20;;
2019;SDS011;1014;51.960;8.542;2023-05-10T14:15:26;27.53;;;25.03;;
2019;SDS011;1014;51.960;8.542;2023-05-10T14:17:53;29.53;;;27.10;;
2019;SDS011;1014;51.960;8.542;2023-05-10T14:20:20;27.70;;;25.10;;
2019;SDS011;1014;51.960;8.542;2023-05-10T14:22:48;27.73;;;25.20;;
2019;SDS011;1014;51.960;8.542;2023-05-10T14:25:15;26.93;;;24.10;;
2019;SDS011;1014;51.960;8.542;2023-05-10T14:27:42;28.47;;;26.13;;
2019;SDS011;1014;51.960;8.542;2023-05-10T14:30:10;27.10;;;24.90;;
2019;SDS011;1014;51.960;8.542;2023-05-10T14:32:37;28.20;;;25.80;;
2019;SDS011;1014;51.960;8.542;2023-05-10T14:35:04;28.00;;;25.80;;
2019;SDS011;1014;51.960;8.542;2023-05-10T14:37:32;27.37;;;25.10;;
2019;SDS011;1014;51.960;8.542;2023-05-10T14:40:01;27.80;;;25.77;;
2019;SDS011;1014;51.960;8.542;2023-05-10T14:42:29;25.90;;;23.90;;
2019;SDS011;1014;51.960;8.542;2023-05-10T14:44:56;23.73;;;21.93;;
2019;SDS011;1014;51.960;8.542;2023-05-10T14:47:23;25.90;;;23.90;;
2019;SDS011;1014;51.960;8.542;2023-05-10T14:49:50;24.27;;;22.10;;
2019;SDS011;1014;51.960;8.542;2023-05-10T14:52:17;26.20;;;24.00;;
2019;SDS011;1014;51.960;8.542;2023-05-10T14:54:44;26.40;;;24.20;;
2019;SDS011;1014;51.960;8.542;2023-05-10T14:57:12;26.33;;;24.07;;